Time;durP1;ratioP1;P1;durP2;ratioP2;P2;SDS_P1;SDS_P2;PMS_P1;PMS_P2;Temp;Humidity;BMP_temperature;BMP_pressure;BME280_temperature;BME280_humidity;BME280_pressure;Samples;Min_cycle;Max_cycle;Signal;HPM_P1;HPM_P2
2022/01/06 00:00:38;;;;;;;15.54;14.04;;;;;;;6.73;80.67;99713.49;453928;114;922857;-75
2022/01/06 00:01:42;;;;;;;14.09;12.86;;;;;;;6.73;80.64;99710.78;451712;114;930395;-74
2022/01/06 00:02:45;;;;;;;15.33;13.28;;;;;;;6.74;80.58;99723.30;453272;114;922545;-74
2022/01/06 00:03:49;;;;;;;15.81;14.28;;;;;;;6.74;80.44;99723.30;452671;114;930426;-75
2022/01/06 00:04:52;;;;;;;16.41;14.93;;;;;;;6.72;80.39;99714.56;451958;116;930339;-75
2022/01/06 00:05:56;;;;;;;16.79;13.42;;;;;;;6.71;80.30;99707.47;452787;114;922595;-75
2022/01/06 00:07:00;;;;;;;16.41;14.66;;;;;;;6.69;80.27;99709.55;453041;114;922868;-75
2022/01/06 00:08:03;;;;;;;17.50;15.76;;;;;;;6.67;80.30;99715.17;452797;114;930463;-75
2022/01/06 00:09:08;;;;;;;15.72;14.28;;;;;;;6.66;80.29;99712.70;453123;114;923436;-75
2022/01/06 00:10:14;;;;;;;16.20;14.48;;;;;;;6.64;80.26;99715.61;451516;116;930361;-75
2022/01/06 00:11:17;;;;;;;15.44;14.07;;;;;;;6.63;80.28;99711.23;452260;114;922531;-75
2022/01/06 00:12:27;;;;;;;16.06;14.45;;;;;;;6.63;80.35;99713.94;452693;114;922608;-74
2022/01/06 00:13:33;;;;;;;16.10;14.60;;;;;;;6.63;80.34;99723.94;452813;116;930796;-74
2022/01/06 00:15:56;;;;;;;16.17;14.64;;;;;;;6.62;80.26;99720.39;452745;114;922706;-75
2022/01/06 00:17:04;;;;;;;16.03;14.47;;;;;;;6.61;80.17;99713.33;454001;114;923089;-74
2022/01/06 00:24:28;;;;;;;15.38;13.84;;;;;;;6.60;80.44;99718.95;451664;114;922986;-74
2022/01/06 00:25:31;;;;;;;15.22;13.79;;;;;;;6.60;80.43;99721.66;453453;114;922971;-75
2022/01/06 00:26:35;;;;;;;15.35;14.01;;;;;;;6.59;80.46;99709.16;451029;116;922786;-75
2022/01/06 00:27:38;;;;;;;15.85;14.29;;;;;;;6.59;80.42;99711.86;451022;114;922802;-75
2022/01/06 00:28:42;;;;;;;14.68;13.13;;;;;;;6.60;80.52;99705.41;452550;114;930378;-75
2022/01/06 00:29:45;;;;;;;16.29;14.62;;;;;;;6.62;80.56;99706.02;453098;114;930522;-74
2022/01/06 00:30:48;;;;;;;16.38;14.66;;;;;;;6.63;80.53;99711.23;451481;115;922757;-75
2022/01/06 00:31:52;;;;;;;18.40;14.82;;;;;;;6.64;80.54;99704.77;451718;116;922451;-76
2022/01/06 00:32:55;;;;;;;14.89;13.44;;;;;;;6.65;80.48;99689.36;451264;114;922851;-74
2022/01/06 00:33:59;;;;;;;14.41;13.08;;;;;;;6.67;80.44;99698.11;452032;115;922775;-77
2022/01/06 00:35:03;;;;;;;15.72;14.19;;;;;;;6.68;80.37;99705.17;445939;116;922530;-74
2022/01/06 00:36:06;;;;;;;16.59;14.14;;;;;;;6.68;80.32;99705.17;443914;116;930496;-75
2022/01/06 00:37:09;;;;;;;13.91;12.71;;;;;;;6.67;80.22;99714.37;451811;114;923000;-75
2022/01/06 00:38:13;;;;;;;14.49;13.27;;;;;;;6.66;80.15;99723.53;452951;114;922718;-75
2022/01/06 00:39:16;;;;;;;14.98;13.64;;;;;;;6.65;80.10;99729.98;453163;115;923979;-74
2022/01/06 00:40:20;;;;;;;16.25;13.13;;;;;;;6.64;80.17;99733.73;453454;114;922891;-74
2022/01/06 00:41:25;;;;;;;14.99;13.67;;;;;;;6.64;80.28;99731.02;452100;115;922802;-76
2022/01/06 00:42:29;;;;;;;14.66;13.26;;;;;;;6.65;80.31;99717.28;453100;114;922744;-74
2022/01/06 00:43:32;;;;;;;14.28;13.00;;;;;;;6.66;80.34;99718.11;453793;114;922787;-74
2022/01/06 00:44:36;;;;;;;14.51;13.34;;;;;;;6.68;80.34;99718.72;451610;116;930395;-75
2022/01/06 00:45:39;;;;;;;16.01;14.16;;;;;;;6.69;80.35;99717.67;452364;114;922466;-74
2022/01/06 00:46:43;;;;;;;14.45;13.14;;;;;;;6.70;80.29;99716.64;452095;114;923047;-74
2022/01/06 00:47:46;;;;;;;16.42;14.58;;;;;;;6.69;80.23;99723.09;456586;112;930614;-75
2022/01/06 00:48:49;;;;;;;14.79;12.91;;;;;;;6.68;80.23;99724.97;457922;112;922514;-74
2022/01/06 00:49:52;;;;;;;15.91;14.29;;;;;;;6.68;80.15;99724.97;458754;112;922560;-75
2022/01/06 00:50:56;;;;;;;15.89;14.17;;;;;;;6.68;80.16;99716.84;460036;112;922933;-75
2022/01/06 00:51:59;;;;;;;15.81;14.33;;;;;;;6.68;80.13;99716.00;458994;112;922585;-73
2022/01/06 00:53:04;;;;;;;14.49;13.17;;;;;;;6.65;80.09;99719.98;459635;112;930472;-74
2022/01/06 00:54:07;;;;;;;14.34;13.08;;;;;;;6.65;80.07;99721.86;457670;112;922575;-74
2022/01/06 00:55:11;;;;;;;16.52;14.86;;;;;;;6.63;80.07;99722.06;458260;112;930321;-75
2022/01/06 00:56:14;;;;;;;15.34;13.91;;;;;;;6.63;80.08;99718.52;458477;112;922790;-74
2022/01/06 00:57:18;;;;;;;16.71;14.94;;;;;;;6.61;80.11;99712.50;457697;112;923093;-75
2022/01/06 00:58:21;;;;;;;17.21;15.70;;;;;;;6.61;80.13;99712.50;457716;112;922723;-74
2022/01/06 00:59:25;;;;;;;16.51;14.94;;;;;;;6.60;80.21;99714.37;457834;112;922639;-79
2022/01/06 01:00:37;;;;;;;16.80;14.43;;;;;;;6.61;80.25;99710.63;458020;112;922675;-75
2022/01/06 01:01:35;;;;;;;17.33;15.64;;;;;;;6.62;80.21;99706.02;456058;112;922687;-73
2022/01/06 01:02:39;;;;;;;17.69;16.05;;;;;;;6.62;80.24;99706.02;456872;112;923539;-76
2022/01/06 01:03:42;;;;;;;17.09;15.52;;;;;;;6.62;80.25;99708.72;456107;112;922747;-74
2022/01/06 01:04:45;;;;;;;15.69;14.06;;;;;;;6.63;80.21;99713.09;457021;112;922751;-74
2022/01/06 01:05:50;;;;;;;16.46;14.93;;;;;;;6.62;80.17;99704.14;458502;112;922605;-75
2022/01/06 01:06:54;;;;;;;16.47;14.77;;;;;;;6.62;80.17;99709.55;460835;112;922830;-75
2022/01/06 01:07:57;;;;;;;17.88;15.39;;;;;;;6.62;80.19;99701.43;457397;112;922788;-75
2022/01/06 01:09:00;;;;;;;16.23;14.69;;;;;;;6.63;80.23;99702.27;458866;112;923011;-75
2022/01/06 01:10:04;;;;;;;17.21;15.60;;;;;;;6.63;80.22;99704.97;458894;112;923083;-74
2022/01/06 01:11:08;;;;;;;19.15;14.45;;;;;;;6.63;80.23;99705.81;456377;112;922482;-74
2022/01/06 01:12:11;;;;;;;17.23;15.46;;;;;;;6.62;80.22;99706.84;456529;112;922638;-74
2022/01/06 01:13:15;;;;;;;21.61;15.27;;;;;;;6.64;80.23;99714.77;459003;112;922644;-75
2022/01/06 01:14:26;;;;;;;17.15;15.40;;;;;;;6.62;80.22;99709.55;458537;112;924007;-74
2022/01/06 01:15:24;;;;;;;17.35;15.56;;;;;;;6.62;80.14;99716.84;457738;112;922643;-74
2022/01/06 01:16:32;;;;;;;15.54;14.01;;;;;;;6.61;80.18;99717.91;458882;112;922580;-74
2022/01/06 01:17:34;;;;;;;16.23;14.63;;;;;;;6.60;80.22;99718.95;459151;112;930431;-74
2022/01/06 01:18:45;;;;;;;16.72;15.22;;;;;;;6.61;80.30;99723.33;458342;112;923219;-74
2022/01/06 01:19:43;;;;;;;16.90;15.32;;;;;;;6.62;80.32;99723.09;457805;112;923022;-74
2022/01/06 01:20:48;;;;;;;16.88;15.23;;;;;;;6.62;80.26;99722.27;456725;112;923185;-75
2022/01/06 01:21:53;;;;;;;16.33;14.69;;;;;;;6.60;80.20;99727.08;458404;112;923443;-75
2022/01/06 01:22:56;;;;;;;15.05;13.74;;;;;;;6.58;80.19;99726.44;458120;112;922551;-75
2022/01/06 01:24:00;;;;;;;15.72;14.31;;;;;;;6.55;80.17;99722.30;457686;112;922644;-75
2022/01/06 01:25:04;;;;;;;16.99;15.19;;;;;;;6.54;80.18;99719.78;456759;112;923354;-75
2022/01/06 01:26:07;;;;;;;16.63;15.24;;;;;;;6.53;80.20;99720.82;457098;112;922619;-74
2022/01/06 01:27:10;;;;;;;16.91;15.44;;;;;;;6.51;80.24;99726.44;457604;112;922534;-75
2022/01/06 01:28:15;;;;;;;18.00;16.42;;;;;;;6.51;80.31;99726.44;457059;112;922842;-73
2022/01/06 01:29:19;;;;;;;18.01;15.83;;;;;;;6.51;80.37;99731.86;456508;112;922661;-75
2022/01/06 01:30:29;;;;;;;16.99;15.39;;;;;;;6.51;80.35;99729.15;458168;112;922642;-75
2022/01/06 01:31:32;;;;;;;19.21;16.66;;;;;;;6.52;80.40;99730.82;458686;112;922607;-75
2022/01/06 01:32:36;;;;;;;21.52;18.24;;;;;;;6.53;80.35;99727.08;460261;112;922664;-75
2022/01/06 01:33:38;;;;;;;22.05;18.71;;;;;;;6.52;80.37;99725.41;458435;112;922640;-74
2022/01/06 01:34:44;;;;;;;20.37;17.61;;;;;;;6.51;80.37;99712.06;460128;112;922607;-75
2022/01/06 01:35:46;;;;;;;21.34;18.89;;;;;;;6.51;80.37;99712.90;459081;112;931115;-74
2022/01/06 01:36:51;;;;;;;19.71;17.66;;;;;;;6.52;80.49;99714.57;460706;112;922612;-75
2022/01/06 01:37:54;;;;;;;19.85;17.91;;;;;;;6.54;80.51;99708.95;457339;112;922550;-74
2022/01/06 01:38:58;;;;;;;18.41;16.59;;;;;;;6.53;80.36;99718.95;459862;112;922664;-75
2022/01/06 01:40:03;;;;;;;20.08;17.86;;;;;;;6.49;80.29;99712.30;457811;112;922674;-75
2022/01/06 01:41:08;;;;;;;18.73;16.86;;;;;;;6.49;80.40;99719.59;457540;112;922557;-74
2022/01/06 01:42:13;;;;;;;17.47;15.27;;;;;;;6.48;80.44;99720.63;458016;112;922787;-73
2022/01/06 01:43:16;;;;;;;18.96;16.66;;;;;;;6.47;80.36;99719.78;458086;112;923393;-74
2022/01/06 01:44:21;;;;;;;17.31;15.64;;;;;;;6.47;80.38;99710.83;457050;112;922683;-73
2022/01/06 01:45:29;;;;;;;21.56;16.66;;;;;;;6.47;80.46;99727.08;457736;112;928250;-73
2022/01/06 01:46:30;;;;;;;17.82;16.04;;;;;;;6.46;80.51;99717.28;458249;112;923053;-74
2022/01/06 01:47:40;;;;;;;17.10;15.48;;;;;;;6.47;80.64;99711.66;457414;112;922603;-73
2022/01/06 01:48:48;;;;;;;17.97;16.28;;;;;;;6.48;80.67;99709.79;458039;112;923473;-73
2022/01/06 01:49:55;;;;;;;16.58;14.78;;;;;;;6.50;80.80;99710.42;449830;115;922611;-74
2022/01/06 01:50:56;;;;;;;17.40;15.75;;;;;;;6.51;80.76;99715.61;451159;112;922775;-74
2022/01/06 01:51:59;;;;;;;17.97;16.39;;;;;;;6.51;80.75;99718.31;456773;112;923018;-74
2022/01/06 01:53:03;;;;;;;16.40;14.75;;;;;;;6.52;80.73;99713.73;457890;112;922571;-74
2022/01/06 01:54:06;;;;;;;15.78;14.31;;;;;;;6.52;80.66;99719.98;457847;112;922401;-73
2022/01/06 01:55:11;;;;;;;16.38;14.71;;;;;;;6.51;80.63;99717.48;458279;112;922650;-74
2022/01/06 01:56:16;;;;;;;16.54;15.01;;;;;;;6.49;80.50;99709.59;461881;112;922565;-73
2022/01/06 01:57:20;;;;;;;16.81;14.97;;;;;;;6.47;80.56;99703.54;459071;112;922897;-74
2022/01/06 01:58:23;;;;;;;15.69;14.11;;;;;;;6.47;80.61;99702.70;459574;112;923000;-74
2022/01/06 01:59:27;;;;;;;15.33;13.88;;;;;;;6.45;80.63;99689.36;458681;112;923269;-75
2022/01/06 02:00:31;;;;;;;14.61;13.33;;;;;;;6.45;80.69;99689.36;451886;115;922728;-75
2022/01/06 02:01:34;;;;;;;15.88;14.37;;;;;;;6.45;80.71;99688.56;453346;114;926144;-74
2022/01/06 02:02:38;;;;;;;15.51;14.12;;;;;;;6.45;80.74;99696.69;459523;112;922519;-74
2022/01/06 02:03:42;;;;;;;15.21;13.69;;;;;;;6.45;80.70;99686.66;458886;112;922875;-74
2022/01/06 02:04:47;;;;;;;16.83;15.27;;;;;;;6.46;80.79;99684.78;458746;112;922660;-73
2022/01/06 02:05:50;;;;;;;18.14;15.07;;;;;;;6.45;80.74;99680.44;458042;112;923261;-74
2022/01/06 02:06:54;;;;;;;17.92;15.76;;;;;;;6.44;80.72;99682.31;459788;112;922632;-74
2022/01/06 02:07:59;;;;;;;15.80;14.34;;;;;;;6.43;80.71;99685.22;458547;112;922649;-74
2022/01/06 02:09:03;;;;;;;15.98;14.46;;;;;;;6.43;80.65;99685.22;457520;112;930435;-74
2022/01/06 02:10:09;;;;;;;16.83;15.32;;;;;;;6.42;80.62;99680.84;457687;112;922602;-72
2022/01/06 02:11:13;;;;;;;16.53;14.92;;;;;;;6.40;80.60;99682.91;459571;112;923441;-75
2022/01/06 02:12:29;;;;;;;16.04;14.47;;;;;;;6.38;80.60;99685.85;457840;112;923039;-74
2022/01/06 02:13:32;;;;;;;20.09;14.45;;;;;;;6.36;80.58;99684.38;458247;112;922723;-74
2022/01/06 02:14:37;;;;;;;15.93;14.48;;;;;;;6.33;80.58;99685.66;457044;112;923073;-74
2022/01/06 02:15:40;;;;;;;17.52;15.43;;;;;;;6.32;80.67;99678.56;457317;112;923528;-75
2022/01/06 02:16:44;;;;;;;20.34;15.09;;;;;;;6.33;80.76;99676.69;459269;112;922493;-73
2022/01/06 02:17:48;;;;;;;16.73;15.22;;;;;;;6.35;80.88;99680.00;458872;112;922663;-74
2022/01/06 02:18:53;;;;;;;15.49;14.08;;;;;;;6.37;80.96;99676.06;457522;112;930554;-75
2022/01/06 02:19:57;;;;;;;17.54;15.82;;;;;;;6.41;80.96;99684.58;457084;112;923079;-73
2022/01/06 02:21:01;;;;;;;17.25;15.66;;;;;;;6.43;80.88;99674.39;457160;112;923129;-74
2022/01/06 02:22:04;;;;;;;15.93;14.31;;;;;;;6.45;80.84;99677.73;456462;112;923683;-75
2022/01/06 02:23:08;;;;;;;17.44;15.69;;;;;;;6.46;80.86;99674.79;457754;112;930479;-74
2022/01/06 02:24:11;;;;;;;17.19;14.89;;;;;;;6.48;80.89;99678.12;458295;112;923651;-74
2022/01/06 02:25:20;;;;;;;17.23;15.53;;;;;;;6.52;80.81;99673.11;458995;112;923068;-74
2022/01/06 02:26:24;;;;;;;19.22;15.97;;;;;;;6.53;80.79;99675.63;460388;112;923182;-75
2022/01/06 02:27:28;;;;;;;22.02;16.14;;;;;;;6.55;80.74;99672.71;458321;112;922440;-74
2022/01/06 02:28:31;;;;;;;18.07;16.34;;;;;;;6.56;80.67;99677.89;457208;112;923041;-74
2022/01/06 02:29:34;;;;;;;17.04;15.48;;;;;;;6.58;80.68;99677.69;457735;112;922985;-74
2022/01/06 02:30:38;;;;;;;18.39;15.90;;;;;;;6.59;80.62;99677.48;459825;112;922631;-74
2022/01/06 02:31:43;;;;;;;18.28;16.51;;;;;;;6.60;80.56;99681.03;458256;112;922646;-74
2022/01/06 02:32:47;;;;;;;18.76;16.40;;;;;;;6.61;80.53;99671.88;458908;112;923298;-75
2022/01/06 02:33:50;;;;;;;17.35;15.68;;;;;;;6.61;80.53;99667.28;459848;112;922761;-74
2022/01/06 02:34:53;;;;;;;18.38;16.38;;;;;;;6.64;80.52;99672.27;460525;112;930574;-74
2022/01/06 02:35:57;;;;;;;17.91;16.21;;;;;;;6.65;80.37;99673.10;457155;112;922528;-74
2022/01/06 02:37:02;;;;;;;17.81;16.21;;;;;;;6.64;80.23;99671.43;458226;112;922837;-73
2022/01/06 02:38:05;;;;;;;17.31;15.65;;;;;;;6.62;80.18;99668.92;459020;112;930629;-74
2022/01/06 02:39:09;;;;;;;17.32;15.58;;;;;;;6.62;80.17;99668.92;459303;112;922194;-74
2022/01/06 02:40:16;;;;;;;17.22;15.50;;;;;;;6.63;80.22;99669.77;460404;112;922521;-74
2022/01/06 02:41:19;;;;;;;18.47;14.84;;;;;;;6.63;80.22;99683.30;456811;112;922492;-73
2022/01/06 02:42:23;;;;;;;19.84;16.10;;;;;;;6.62;80.19;99676.22;458686;112;923089;-73
2022/01/06 02:43:27;;;;;;;16.06;14.37;;;;;;;6.63;80.14;99683.30;457686;112;922573;-74
2022/01/06 02:44:30;;;;;;;29.84;14.56;;;;;;;6.62;80.17;99678.92;457624;112;922673;-74
2022/01/06 02:45:36;;;;;;;16.96;15.21;;;;;;;6.62;80.16;99678.92;456598;112;923074;-74
2022/01/06 02:46:40;;;;;;;18.29;15.42;;;;;;;6.62;80.10;99684.34;456582;112;923213;-75
2022/01/06 02:47:46;;;;;;;16.80;15.21;;;;;;;6.61;80.11;99691.66;457930;112;922601;-74
2022/01/06 02:48:49;;;;;;;16.22;14.63;;;;;;;6.61;80.11;99690.83;458505;112;922674;-75
2022/01/06 02:49:53;;;;;;;17.48;14.43;;;;;;;6.60;80.07;99679.16;458805;112;922545;-75
2022/01/06 02:50:56;;;;;;;15.91;14.06;;;;;;;6.60;80.05;99683.73;459311;112;930821;-74
2022/01/06 02:52:01;;;;;;;15.83;14.48;;;;;;;6.58;80.03;99686.65;459355;112;922650;-74
2022/01/06 02:53:06;;;;;;;15.38;14.08;;;;;;;6.59;80.09;99679.36;458345;112;922634;-75
2022/01/06 02:54:10;;;;;;;18.62;14.45;;;;;;;6.58;80.10;99678.53;457588;112;930820;-75
2022/01/06 02:55:14;;;;;;;17.41;14.92;;;;;;;6.60;80.17;99675.62;456722;112;923002;-75
2022/01/06 02:56:19;;;;;;;18.89;15.83;;;;;;;6.61;80.19;99675.41;460115;112;930611;-75
2022/01/06 02:57:22;;;;;;;17.03;14.68;;;;;;;6.62;80.17;99677.05;459867;112;930659;-75
2022/01/06 02:58:26;;;;;;;16.14;14.79;;;;;;;6.64;80.17;99676.84;460311;112;923004;-75
2022/01/06 02:59:29;;;;;;;16.74;15.14;;;;;;;6.65;80.11;99675.81;458313;112;922656;-75
2022/01/06 03:00:35;;;;;;;15.52;14.07;;;;;;;6.67;80.09;99682.66;457836;112;930930;-75
2022/01/06 03:01:43;;;;;;;17.31;15.71;;;;;;;6.66;79.99;99670.19;459263;112;922613;-75
2022/01/06 03:02:47;;;;;;;16.46;14.80;;;;;;;6.66;79.94;99678.31;455925;112;922659;-74
2022/01/06 03:03:51;;;;;;;17.34;15.26;;;;;;;6.67;79.92;99677.25;459380;112;923108;-74
2022/01/06 03:04:54;;;;;;;19.36;17.62;;;;;;;6.64;79.77;99666.02;459297;112;922810;-73
2022/01/06 03:05:58;;;;;;;22.49;20.15;;;;;;;6.64;79.77;99666.02;457722;112;930418;-75
2022/01/06 03:07:02;;;;;;;19.74;17.79;;;;;;;6.64;79.80;99672.27;456227;112;923055;-74
2022/01/06 03:08:06;;;;;;;19.91;16.77;;;;;;;6.64;79.84;99664.14;457911;112;922548;-74
2022/01/06 03:09:09;;;;;;;20.28;16.86;;;;;;;6.65;79.82;99676.65;456997;112;930633;-76
2022/01/06 03:10:16;;;;;;;18.24;15.75;;;;;;;6.64;79.86;99669.56;458837;112;930444;-73
2022/01/06 03:11:25;;;;;;;16.53;14.88;;;;;;;6.66;79.90;99672.06;457106;112;922639;-74
2022/01/06 03:12:32;;;;;;;15.79;14.24;;;;;;;6.68;79.87;99672.66;457671;112;922573;-74
2022/01/06 03:13:29;;;;;;;15.61;14.08;;;;;;;6.66;79.79;99667.48;457496;112;923083;-73
2022/01/06 03:14:33;;;;;;;16.99;15.34;;;;;;;6.65;79.76;99665.81;460837;112;922806;-75
2022/01/06 03:15:37;;;;;;;17.44;15.30;;;;;;;6.65;79.75;99664.98;458954;112;922924;-75
2022/01/06 03:16:40;;;;;;;16.25;14.65;;;;;;;6.66;79.81;99661.23;459220;112;930573;-76
2022/01/06 03:17:46;;;;;;;17.67;15.61;;;;;;;6.66;79.73;99663.94;458674;112;922758;-75
2022/01/06 03:18:49;;;;;;;16.61;15.00;;;;;;;6.65;79.61;99664.98;458118;112;922545;-73
2022/01/06 03:19:52;;;;;;;16.15;14.53;;;;;;;6.63;79.66;99661.63;461953;112;922674;-75
2022/01/06 03:20:56;;;;;;;18.04;14.90;;;;;;;6.62;79.66;99668.92;457700;112;923017;-74
2022/01/06 03:21:59;;;;;;;17.08;15.44;;;;;;;6.62;79.67;99658.09;458935;112;923527;-75
2022/01/06 03:23:02;;;;;;;16.40;14.09;;;;;;;6.62;79.68;99655.38;458500;112;922789;-74
2022/01/06 03:24:06;;;;;;;15.72;14.21;;;;;;;6.62;79.63;99657.26;458704;112;922543;-74
2022/01/06 03:25:11;;;;;;;18.77;15.36;;;;;;;6.61;79.60;99655.63;458992;112;930574;-74
2022/01/06 03:26:17;;;;;;;16.63;15.03;;;;;;;6.60;79.56;99653.95;456687;112;923165;-74
2022/01/06 03:27:21;;;;;;;15.09;13.58;;;;;;;6.57;79.54;99647.06;458466;112;922630;-74
2022/01/06 03:28:24;;;;;;;16.35;14.24;;;;;;;6.55;79.54;99651.05;457826;112;922921;-74
2022/01/06 03:29:28;;;;;;;15.46;14.13;;;;;;;6.53;79.56;99645.83;459557;112;922525;-74
2022/01/06 03:30:31;;;;;;;16.84;15.24;;;;;;;6.53;79.61;99650.41;457586;112;930723;-74
2022/01/06 03:31:34;;;;;;;15.78;13.79;;;;;;;6.52;79.71;99646.87;457075;112;922632;-75
2022/01/06 03:32:38;;;;;;;15.52;14.04;;;;;;;6.53;79.71;99648.54;458094;112;922562;-75
2022/01/06 03:33:41;;;;;;;17.21;15.09;;;;;;;6.54;79.76;99644.80;455527;112;922766;-74
2022/01/06 03:34:45;;;;;;;16.80;14.84;;;;;;;6.56;79.77;99645.39;456559;112;930672;-75
2022/01/06 03:35:49;;;;;;;16.56;14.88;;;;;;;6.57;79.77;99636.23;457126;112;922696;-75
2022/01/06 03:36:53;;;;;;;17.33;14.95;;;;;;;6.58;79.82;99639.77;456475;112;922783;-74
2022/01/06 03:37:56;;;;;;;16.69;14.95;;;;;;;6.58;79.73;99639.77;461405;112;930558;-75
2022/01/06 03:38:59;;;;;;;17.99;15.21;;;;;;;6.58;79.75;99637.06;461019;112;922508;-74
2022/01/06 03:40:05;;;;;;;16.30;14.67;;;;;;;6.56;79.78;99636.47;461924;112;922606;-74
2022/01/06 03:41:08;;;;;;;16.12;14.69;;;;;;;6.59;79.86;99641.45;461181;112;922887;-74
2022/01/06 03:42:12;;;;;;;16.59;15.09;;;;;;;6.58;79.85;99639.77;459943;112;922643;-74
2022/01/06 03:43:15;;;;;;;18.64;14.95;;;;;;;6.58;79.78;99623.52;458710;112;930860;-74
2022/01/06 03:44:19;;;;;;;18.09;15.79;;;;;;;6.56;79.82;99633.76;459448;112;923168;-74
2022/01/06 03:45:22;;;;;;;17.07;15.36;;;;;;;6.56;79.82;99626.44;459265;112;930626;-73
2022/01/06 03:46:26;;;;;;;18.04;15.93;;;;;;;6.58;79.83;99618.11;459528;112;922565;-74
2022/01/06 03:47:29;;;;;;;17.61;15.69;;;;;;;6.58;79.84;99615.40;457976;112;923074;-74
2022/01/06 03:48:32;;;;;;;19.46;16.52;;;;;;;6.59;79.85;99608.94;458925;112;922560;-74
2022/01/06 03:49:36;;;;;;;17.90;16.32;;;;;;;6.59;79.90;99606.23;460167;112;923280;-73
2022/01/06 03:50:39;;;;;;;18.46;15.46;;;;;;;6.58;79.85;99613.53;458689;112;922690;-73
2022/01/06 03:51:42;;;;;;;19.24;17.22;;;;;;;6.59;79.86;99617.07;459848;112;922784;-74
2022/01/06 03:52:46;;;;;;;18.29;16.65;;;;;;;6.59;79.79;99619.78;460718;112;922658;-74
2022/01/06 03:53:50;;;;;;;16.86;15.20;;;;;;;6.57;79.75;99624.56;458351;112;923070;-72
2022/01/06 03:54:54;;;;;;;18.48;16.49;;;;;;;6.54;79.77;99633.13;460218;112;923190;-75
2022/01/06 03:55:57;;;;;;;17.79;15.97;;;;;;;6.53;79.79;99636.88;458950;112;922597;-74
2022/01/06 03:57:00;;;;;;;18.23;16.28;;;;;;;6.49;79.81;99633.77;458473;112;922574;-73
2022/01/06 03:58:05;;;;;;;17.18;15.51;;;;;;;6.49;79.81;99633.77;458544;112;930636;-73
2022/01/06 03:59:09;;;;;;;18.34;15.84;;;;;;;6.47;79.80;99632.30;457992;112;922629;-74
2022/01/06 04:00:17;;;;;;;17.64;15.88;;;;;;;6.44;79.84;99627.31;458045;112;922656;-74
2022/01/06 04:01:21;;;;;;;18.90;16.93;;;;;;;6.42;79.88;99626.69;456094;112;922789;-74
2022/01/06 04:02:24;;;;;;;18.09;16.31;;;;;;;6.41;79.94;99625.02;457522;112;922476;-74
2022/01/06 04:03:28;;;;;;;18.64;16.87;;;;;;;6.39;79.99;99630.66;458884;112;922684;-74
2022/01/06 04:04:32;;;;;;;20.75;15.88;;;;;;;6.38;80.03;99634.41;459742;112;930677;-74
2022/01/06 04:05:35;;;;;;;17.91;15.92;;;;;;;6.38;80.09;99633.58;460507;112;922734;-75
2022/01/06 04:06:41;;;;;;;17.37;15.05;;;;;;;6.38;80.12;99629.00;458537;112;922567;-74
2022/01/06 04:07:44;;;;;;;17.82;15.53;;;;;;;6.37;80.06;99631.91;458924;112;922512;-73
2022/01/06 04:08:47;;;;;;;16.95;15.24;;;;;;;6.35;80.04;99640.23;457225;112;922783;-74
2022/01/06 04:09:51;;;;;;;16.74;15.18;;;;;;;6.33;80.08;99641.50;457648;112;922990;-74
2022/01/06 04:10:54;;;;;;;17.03;15.19;;;;;;;6.32;80.15;99639.83;459324;112;923066;-74
2022/01/06 04:11:57;;;;;;;18.98;16.26;;;;;;;6.29;80.24;99641.90;458589;112;923248;-74
2022/01/06 04:13:01;;;;;;;16.84;15.22;;;;;;;6.29;80.30;99641.90;460311;112;922475;-74
2022/01/06 04:14:04;;;;;;;18.05;15.78;;;;;;;6.26;80.38;99647.75;458194;112;922562;-73
2022/01/06 04:15:12;;;;;;;17.36;15.56;;;;;;;6.28;80.46;99648.35;457931;112;923103;-75
2022/01/06 04:16:17;;;;;;;18.46;16.49;;;;;;;6.31;80.53;99648.98;458357;112;922797;-74
2022/01/06 04:17:21;;;;;;;17.78;16.03;;;;;;;6.30;80.52;99656.27;459252;112;922747;-73
2022/01/06 04:18:24;;;;;;;17.41;15.80;;;;;;;6.31;80.46;99651.69;457460;112;922955;-75
2022/01/06 04:19:27;;;;;;;17.66;16.02;;;;;;;6.29;80.52;99658.14;457140;112;922754;-74
2022/01/06 04:20:31;;;;;;;18.31;16.54;;;;;;;6.31;80.60;99659.81;458255;112;922534;-74
2022/01/06 04:21:34;;;;;;;18.22;16.45;;;;;;;6.32;80.69;99654.20;457771;112;922704;-73
2022/01/06 04:22:39;;;;;;;17.67;15.96;;;;;;;6.34;80.69;99660.22;458105;112;922527;-73
2022/01/06 04:23:42;;;;;;;17.39;15.48;;;;;;;6.34;80.67;99657.52;456290;112;930477;-74
2022/01/06 04:24:45;;;;;;;20.31;16.67;;;;;;;6.36;80.72;99660.02;457357;112;923052;-75
2022/01/06 04:25:49;;;;;;;18.50;16.25;;;;;;;6.37;80.70;99664.39;456901;112;922715;-74
2022/01/06 04:26:52;;;;;;;17.80;16.06;;;;;;;6.38;80.65;99666.90;458448;112;922901;-75
2022/01/06 04:27:55;;;;;;;18.00;16.25;;;;;;;6.36;80.58;99666.27;460444;112;922627;-74
2022/01/06 04:28:59;;;;;;;19.70;17.69;;;;;;;6.37;80.57;99672.52;459108;112;922996;-75
2022/01/06 04:30:05;;;;;;;19.49;17.65;;;;;;;6.35;80.55;99663.76;459742;112;922641;-74
2022/01/06 04:31:09;;;;;;;20.02;18.13;;;;;;;6.35;80.56;99655.64;460166;112;930649;-74
2022/01/06 04:32:12;;;;;;;20.28;18.24;;;;;;;6.34;80.51;99662.12;461134;112;922676;-74
2022/01/06 04:33:16;;;;;;;20.83;18.68;;;;;;;6.31;80.51;99655.23;460981;112;922891;-75
2022/01/06 04:34:19;;;;;;;20.12;18.12;;;;;;;6.32;80.59;99656.91;459414;112;922523;-74
2022/01/06 04:35:22;;;;;;;18.74;16.97;;;;;;;6.32;80.60;99658.78;459405;112;922969;-74
2022/01/06 04:36:26;;;;;;;19.94;17.95;;;;;;;6.31;80.52;99665.23;459815;112;922524;-74
2022/01/06 04:37:29;;;;;;;19.48;17.70;;;;;;;6.29;80.56;99662.72;459092;112;922641;-74
2022/01/06 04:38:33;;;;;;;19.24;17.27;;;;;;;6.27;80.67;99665.66;458952;112;923075;-74
2022/01/06 04:39:37;;;;;;;18.92;17.02;;;;;;;6.28;80.78;99669.20;461846;112;922960;-74
2022/01/06 04:40:40;;;;;;;20.03;18.27;;;;;;;6.27;80.87;99671.08;459439;112;923441;-74
2022/01/06 04:41:43;;;;;;;18.90;16.98;;;;;;;6.29;80.95;99668.97;457686;112;923261;-74
2022/01/06 04:42:47;;;;;;;17.81;16.04;;;;;;;6.32;81.02;99666.90;457420;112;922701;-74
2022/01/06 04:43:50;;;;;;;18.62;16.81;;;;;;;6.33;81.06;99669.41;458406;112;922561;-75
2022/01/06 04:44:53;;;;;;;18.46;16.85;;;;;;;6.34;81.07;99667.53;457462;112;922635;-74
2022/01/06 04:45:57;;;;;;;18.42;16.67;;;;;;;6.35;81.07;99671.88;458884;112;930520;-73
2022/01/06 04:47:00;;;;;;;20.03;17.87;;;;;;;6.37;81.14;99664.39;459146;112;922517;-75
2022/01/06 04:48:04;;;;;;;19.45;16.82;;;;;;;6.36;81.12;99668.14;458221;112;922550;-73
2022/01/06 04:49:07;;;;;;;17.93;16.21;;;;;;;6.38;81.12;99675.02;460496;112;922567;-75
2022/01/06 04:50:12;;;;;;;19.11;17.11;;;;;;;6.40;81.13;99674.79;457589;112;930559;-74
2022/01/06 04:51:15;;;;;;;18.08;16.24;;;;;;;6.40;81.17;99672.08;455811;112;922791;-74
2022/01/06 04:52:19;;;;;;;17.84;16.31;;;;;;;6.42;81.21;99680.84;461663;112;922544;-74
2022/01/06 04:53:22;;;;;;;17.75;15.72;;;;;;;6.43;81.18;99677.09;459965;112;930562;-74
2022/01/06 04:54:25;;;;;;;19.10;17.26;;;;;;;6.44;81.20;99679.60;458856;112;922938;-74
2022/01/06 04:55:29;;;;;;;17.11;15.42;;;;;;;6.45;81.14;99673.12;460869;112;930271;-73
2022/01/06 04:56:36;;;;;;;17.36;15.86;;;;;;;6.45;81.12;99670.41;459210;112;922236;-74
2022/01/06 04:57:37;;;;;;;19.66;17.61;;;;;;;6.45;81.11;99675.83;459187;112;923028;-72
2022/01/06 04:58:41;;;;;;;17.41;15.81;;;;;;;6.46;81.14;99668.53;457466;112;922583;-74
2022/01/06 04:59:44;;;;;;;17.76;16.06;;;;;;;6.46;81.11;99676.66;458585;112;922740;-74
2022/01/06 05:00:48;;;;;;;19.51;17.39;;;;;;;6.47;81.15;99673.75;459247;112;930503;-74
2022/01/06 05:01:52;;;;;;;18.21;16.53;;;;;;;6.47;81.17;99678.33;459127;112;922592;-73